Terminal Aerodrome Forecast
Issued by NWS

Home | Current Version | Previous Version | Text Only | Print | Product List | Glossary On
Versions: 1 2 3 4 5 6 7 8 9 10 11 12 13 14 15 16 17 18 19 20 21 22
278
FTUS43 KDLH 290536
TAFHYR
TAF
KHYR 290536Z 2906/3006 VRB02KT 6SM BR OVC003
      TEMPO 2906/2908 1SM -DZ BR OVC002
     FM290800 VRB02KT 3SM -DZ BR OVC004
      TEMPO 2908/2912 1/2SM -DZ FG OVC002
     FM291400 27007KT P6SM BKN006 OVC018
     FM291600 27008KT P6SM BKN025
     FM291900 26007KT P6SM VCSH BKN040
     FM300000 00000KT P6SM FEW050=

USA.gov is the U.S. government's official web portal to all federal, state and local government web resources and services.